sensor_id;sensor_type;location;lat;lon;timestamp;P1;durP1;ratioP1;P2;durP2;ratioP2
65717;SDS011;52445;52.466;-1.016;2022-09-27T00:01:07;3.50;;;1.00;;
65717;SDS011;52445;52.466;-1.016;2022-09-27T00:03:36;3.65;;;0.85;;
65717;SDS011;52445;52.466;-1.016;2022-09-27T00:06:08;8.38;;;1.05;;
65717;SDS011;52445;52.466;-1.016;2022-09-27T00:11:22;3.80;;;0.93;;
65717;SDS011;52445;52.466;-1.016;2022-09-27T00:13:53;5.88;;;0.60;;
65717;SDS011;52445;52.466;-1.016;2022-09-27T00:16:22;2.45;;;1.65;;
65717;SDS011;52445;52.466;-1.016;2022-09-27T00:18:51;3.83;;;1.35;;
65717;SDS011;52445;52.466;-1.016;2022-09-27T00:21:17;2.35;;;0.60;;
65717;SDS011;52445;52.466;-1.016;2022-09-27T00:23:44;6.57;;;0.70;;
65717;SDS011;52445;52.466;-1.016;2022-09-27T00:26:11;3.22;;;0.55;;
65717;SDS011;52445;52.466;-1.016;2022-09-27T00:28:39;3.92;;;1.02;;
65717;SDS011;52445;52.466;-1.016;2022-09-27T00:31:11;5.45;;;0.60;;
65717;SDS011;52445;52.466;-1.016;2022-09-27T00:33:43;3.58;;;0.85;;
65717;SDS011;52445;52.466;-1.016;2022-09-27T00:36:09;2.55;;;0.50;;
65717;SDS011;52445;52.466;-1.016;2022-09-27T00:38:36;1.17;;;0.63;;
65717;SDS011;52445;52.466;-1.016;2022-09-27T00:41:02;2.08;;;0.75;;
65717;SDS011;52445;52.466;-1.016;2022-09-27T00:43:33;2.15;;;0.63;;
65717;SDS011;52445;52.466;-1.016;2022-09-27T00:46:09;1.30;;;0.50;;
65717;SDS011;52445;52.466;-1.016;2022-09-27T00:48:38;1.23;;;0.43;;
65717;SDS011;52445;52.466;-1.016;2022-09-27T00:51:05;0.85;;;0.45;;
65717;SDS011;52445;52.466;-1.016;2022-09-27T00:53:37;1.55;;;0.35;;
65717;SDS011;52445;52.466;-1.016;2022-09-27T00:56:12;2.83;;;0.85;;
65717;SDS011;52445;52.466;-1.016;2022-09-27T00:58:45;1.55;;;0.43;;
65717;SDS011;52445;52.466;-1.016;2022-09-27T01:01:18;3.45;;;0.50;;
65717;SDS011;52445;52.466;-1.016;2022-09-27T01:03:48;1.63;;;0.50;;
65717;SDS011;52445;52.466;-1.016;2022-09-27T01:06:21;2.70;;;0.50;;
65717;SDS011;52445;52.466;-1.016;2022-09-27T01:08:48;3.65;;;0.85;;
65717;SDS011;52445;52.466;-1.016;2022-09-27T01:22:39;3.05;;;0.60;;
65717;SDS011;52445;52.466;-1.016;2022-09-27T01:33:49;3.83;;;0.57;;
65717;SDS011;52445;52.466;-1.016;2022-09-27T01:36:28;4.55;;;0.88;;
65717;SDS011;52445;52.466;-1.016;2022-09-27T01:42:09;1.00;;;0.20;;
65717;SDS011;52445;52.466;-1.016;2022-09-27T01:44:46;1.63;;;0.70;;
65717;SDS011;52445;52.466;-1.016;2022-09-27T01:47:18;1.77;;;0.57;;
65717;SDS011;52445;52.466;-1.016;2022-09-27T01:52:30;3.80;;;1.17;;
65717;SDS011;52445;52.466;-1.016;2022-09-27T01:55:03;5.85;;;1.20;;
65717;SDS011;52445;52.466;-1.016;2022-09-27T01:57:34;4.75;;;1.00;;
65717;SDS011;52445;52.466;-1.016;2022-09-27T02:00:06;3.17;;;1.15;;
65717;SDS011;52445;52.466;-1.016;2022-09-27T02:02:36;4.80;;;1.10;;
65717;SDS011;52445;52.466;-1.016;2022-09-27T02:05:07;3.90;;;0.77;;
65717;SDS011;52445;52.466;-1.016;2022-09-27T02:07:39;4.45;;;1.52;;
65717;SDS011;52445;52.466;-1.016;2022-09-27T02:10:15;3.08;;;0.98;;
65717;SDS011;52445;52.466;-1.016;2022-09-27T02:13:05;1.50;;;1.05;;
65717;SDS011;52445;52.466;-1.016;2022-09-27T02:15:47;5.00;;;1.30;;
65717;SDS011;52445;52.466;-1.016;2022-09-27T02:18:27;3.15;;;1.30;;
65717;SDS011;52445;52.466;-1.016;2022-09-27T02:20:59;6.80;;;0.75;;
65717;SDS011;52445;52.466;-1.016;2022-09-27T02:26:19;9.65;;;1.58;;
65717;SDS011;52445;52.466;-1.016;2022-09-27T02:28:56;5.95;;;1.52;;
65717;SDS011;52445;52.466;-1.016;2022-09-27T02:31:27;5.63;;;1.85;;
65717;SDS011;52445;52.466;-1.016;2022-09-27T02:33:57;3.63;;;1.25;;
65717;SDS011;52445;52.466;-1.016;2022-09-27T02:36:27;2.83;;;1.40;;
65717;SDS011;52445;52.466;-1.016;2022-09-27T02:38:55;5.40;;;1.85;;
65717;SDS011;52445;52.466;-1.016;2022-09-27T02:41:22;8.00;;;0.95;;
65717;SDS011;52445;52.466;-1.016;2022-09-27T02:43:50;6.50;;;1.27;;
65717;SDS011;52445;52.466;-1.016;2022-09-27T02:55:10;8.43;;;1.48;;
65717;SDS011;52445;52.466;-1.016;2022-09-27T02:57:50;6.10;;;2.03;;
65717;SDS011;52445;52.466;-1.016;2022-09-27T03:00:33;4.97;;;0.50;;
65717;SDS011;52445;52.466;-1.016;2022-09-27T03:03:13;6.43;;;0.60;;
65717;SDS011;52445;52.466;-1.016;2022-09-27T03:05:51;4.28;;;0.88;;
65717;SDS011;52445;52.466;-1.016;2022-09-27T03:08:23;4.95;;;0.80;;
65717;SDS011;52445;52.466;-1.016;2022-09-27T03:10:49;5.75;;;0.80;;
65717;SDS011;52445;52.466;-1.016;2022-09-27T03:13:17;4.68;;;0.47;;
65717;SDS011;52445;52.466;-1.016;2022-09-27T03:15:43;3.22;;;0.65;;
65717;SDS011;52445;52.466;-1.016;2022-09-27T03:18:10;2.92;;;0.45;;
65717;SDS011;52445;52.466;-1.016;2022-09-27T03:20:36;5.78;;;0.63;;
65717;SDS011;52445;52.466;-1.016;2022-09-27T03:23:03;4.60;;;1.25;;
65717;SDS011;52445;52.466;-1.016;2022-09-27T03:25:29;10.43;;;1.08;;
65717;SDS011;52445;52.466;-1.016;2022-09-27T03:27:56;5.25;;;1.13;;
65717;SDS011;52445;52.466;-1.016;2022-09-27T03:30:22;3.28;;;0.60;;
65717;SDS011;52445;52.466;-1.016;2022-09-27T03:32:49;6.68;;;0.55;;
65717;SDS011;52445;52.466;-1.016;2022-09-27T03:35:16;4.85;;;0.52;;
65717;SDS011;52445;52.466;-1.016;2022-09-27T03:37:42;4.90;;;0.40;;
65717;SDS011;52445;52.466;-1.016;2022-09-27T03:40:09;6.20;;;0.32;;
65717;SDS011;52445;52.466;-1.016;2022-09-27T03:42:36;5.65;;;0.55;;
65717;SDS011;52445;52.466;-1.016;2022-09-27T03:45:03;2.38;;;0.95;;
65717;SDS011;52445;52.466;-1.016;2022-09-27T03:47:30;3.75;;;1.35;;
65717;SDS011;52445;52.466;-1.016;2022-09-27T03:49:57;6.20;;;0.63;;
65717;SDS011;52445;52.466;-1.016;2022-09-27T03:52:23;7.63;;;1.20;;
65717;SDS011;52445;52.466;-1.016;2022-09-27T03:54:50;5.30;;;0.52;;
65717;SDS011;52445;52.466;-1.016;2022-09-27T03:57:17;6.07;;;0.55;;
65717;SDS011;52445;52.466;-1.016;2022-09-27T03:59:43;4.60;;;0.68;;
65717;SDS011;52445;52.466;-1.016;2022-09-27T04:02:10;7.85;;;0.85;;
65717;SDS011;52445;52.466;-1.016;2022-09-27T04:04:36;6.40;;;1.27;;
65717;SDS011;52445;52.466;-1.016;2022-09-27T04:07:03;5.82;;;0.77;;
65717;SDS011;52445;52.466;-1.016;2022-09-27T04:09:30;6.50;;;0.75;;
65717;SDS011;52445;52.466;-1.016;2022-09-27T04:11:56;9.38;;;0.60;;
65717;SDS011;52445;52.466;-1.016;2022-09-27T04:14:23;4.88;;;0.70;;
65717;SDS011;52445;52.466;-1.016;2022-09-27T04:16:49;4.47;;;0.98;;
65717;SDS011;52445;52.466;-1.016;2022-09-27T04:19:16;7.40;;;0.65;;
65717;SDS011;52445;52.466;-1.016;2022-09-27T04:21:42;5.30;;;0.98;;
65717;SDS011;52445;52.466;-1.016;2022-09-27T04:24:09;3.25;;;0.55;;
65717;SDS011;52445;52.466;-1.016;2022-09-27T04:26:37;1.90;;;0.63;;
65717;SDS011;52445;52.466;-1.016;2022-09-27T04:29:05;4.32;;;0.77;;
65717;SDS011;52445;52.466;-1.016;2022-09-27T04:31:33;4.95;;;1.50;;
65717;SDS011;52445;52.466;-1.016;2022-09-27T04:34:00;4.43;;;0.93;;
65717;SDS011;52445;52.466;-1.016;2022-09-27T04:36:26;3.40;;;0.52;;
65717;SDS011;52445;52.466;-1.016;2022-09-27T04:38:54;5.13;;;1.00;;
65717;SDS011;52445;52.466;-1.016;2022-09-27T04:41:22;7.05;;;0.73;;
65717;SDS011;52445;52.466;-1.016;2022-09-27T04:43:50;2.90;;;0.75;;
65717;SDS011;52445;52.466;-1.016;2022-09-27T04:46:23;2.75;;;1.23;;
65717;SDS011;52445;52.466;-1.016;2022-09-27T04:48:50;4.40;;;0.47;;
65717;SDS011;52445;52.466;-1.016;2022-09-27T04:51:17;4.78;;;0.38;;
65717;SDS011;52445;52.466;-1.016;2022-09-27T04:53:45;4.40;;;0.70;;
65717;SDS011;52445;52.466;-1.016;2022-09-27T04:56:12;2.08;;;0.80;;
65717;SDS011;52445;52.466;-1.016;2022-09-27T04:58:40;5.15;;;0.50;;
65717;SDS011;52445;52.466;-1.016;2022-09-27T05:01:07;2.13;;;0.90;;
65717;SDS011;52445;52.466;-1.016;2022-09-27T05:03:34;4.65;;;0.80;;
65717;SDS011;52445;52.466;-1.016;2022-09-27T05:06:01;9.00;;;0.90;;
65717;SDS011;52445;52.466;-1.016;2022-09-27T05:08:28;4.15;;;0.55;;
65717;SDS011;52445;52.466;-1.016;2022-09-27T05:10:55;6.97;;;0.95;;
65717;SDS011;52445;52.466;-1.016;2022-09-27T05:13:21;5.97;;;0.77;;
65717;SDS011;52445;52.466;-1.016;2022-09-27T05:15:48;3.17;;;1.05;;
65717;SDS011;52445;52.466;-1.016;2022-09-27T05:18:14;3.13;;;0.52;;
65717;SDS011;52445;52.466;-1.016;2022-09-27T05:20:43;4.55;;;0.45;;
65717;SDS011;52445;52.466;-1.016;2022-09-27T05:23:10;3.75;;;0.77;;
65717;SDS011;52445;52.466;-1.016;2022-09-27T05:25:37;2.58;;;0.85;;
65717;SDS011;52445;52.466;-1.016;2022-09-27T05:28:04;2.80;;;0.35;;
65717;SDS011;52445;52.466;-1.016;2022-09-27T05:30:31;0.68;;;0.43;;
65717;SDS011;52445;52.466;-1.016;2022-09-27T05:32:58;3.17;;;0.65;;
65717;SDS011;52445;52.466;-1.016;2022-09-27T05:35:24;0.98;;;0.50;;
65717;SDS011;52445;52.466;-1.016;2022-09-27T05:37:52;2.53;;;0.63;;
65717;SDS011;52445;52.466;-1.016;2022-09-27T05:40:20;2.60;;;1.08;;
65717;SDS011;52445;52.466;-1.016;2022-09-27T05:43:06;1.45;;;0.60;;
65717;SDS011;52445;52.466;-1.016;2022-09-27T05:45:32;1.58;;;0.47;;
65717;SDS011;52445;52.466;-1.016;2022-09-27T05:47:59;2.50;;;0.88;;
65717;SDS011;52445;52.466;-1.016;2022-09-27T05:50:26;2.55;;;0.73;;
65717;SDS011;52445;52.466;-1.016;2022-09-27T05:52:53;1.00;;;0.43;;
65717;SDS011;52445;52.466;-1.016;2022-09-27T05:55:20;1.27;;;0.28;;
65717;SDS011;52445;52.466;-1.016;2022-09-27T05:57:56;1.42;;;0.57;;
65717;SDS011;52445;52.466;-1.016;2022-09-27T06:00:25;3.67;;;0.55;;
65717;SDS011;52445;52.466;-1.016;2022-09-27T06:02:52;1.80;;;0.30;;
65717;SDS011;52445;52.466;-1.016;2022-09-27T06:05:20;3.55;;;0.60;;
65717;SDS011;52445;52.466;-1.016;2022-09-27T06:07:49;3.13;;;0.30;;
65717;SDS011;52445;52.466;-1.016;2022-09-27T06:10:17;4.10;;;1.13;;
65717;SDS011;52445;52.466;-1.016;2022-09-27T06:12:44;2.15;;;0.68;;
65717;SDS011;52445;52.466;-1.016;2022-09-27T06:15:11;4.35;;;1.38;;
65717;SDS011;52445;52.466;-1.016;2022-09-27T06:17:38;11.20;;;4.13;;
65717;SDS011;52445;52.466;-1.016;2022-09-27T06:20:04;3.65;;;1.15;;
65717;SDS011;52445;52.466;-1.016;2022-09-27T06:22:32;3.53;;;1.25;;
65717;SDS011;52445;52.466;-1.016;2022-09-27T06:24:59;3.40;;;2.05;;
65717;SDS011;52445;52.466;-1.016;2022-09-27T06:27:25;4.32;;;0.88;;
65717;SDS011;52445;52.466;-1.016;2022-09-27T06:29:52;4.78;;;1.88;;
65717;SDS011;52445;52.466;-1.016;2022-09-27T06:32:19;3.67;;;1.55;;
65717;SDS011;52445;52.466;-1.016;2022-09-27T06:34:45;2.60;;;0.90;;
65717;SDS011;52445;52.466;-1.016;2022-09-27T06:37:12;5.97;;;0.75;;
65717;SDS011;52445;52.466;-1.016;2022-09-27T06:39:38;3.67;;;0.85;;
65717;SDS011;52445;52.466;-1.016;2022-09-27T06:42:05;3.97;;;0.82;;
65717;SDS011;52445;52.466;-1.016;2022-09-27T06:44:32;10.00;;;3.72;;
65717;SDS011;52445;52.466;-1.016;2022-09-27T06:47:00;19.40;;;5.63;;
65717;SDS011;52445;52.466;-1.016;2022-09-27T06:49:26;21.60;;;4.82;;
65717;SDS011;52445;52.466;-1.016;2022-09-27T06:51:53;25.35;;;5.70;;
65717;SDS011;52445;52.466;-1.016;2022-09-27T06:54:20;18.40;;;4.28;;
65717;SDS011;52445;52.466;-1.016;2022-09-27T06:56:47;14.65;;;2.88;;
65717;SDS011;52445;52.466;-1.016;2022-09-27T06:59:14;10.45;;;2.92;;
65717;SDS011;52445;52.466;-1.016;2022-09-27T07:02:00;16.33;;;4.47;;
65717;SDS011;52445;52.466;-1.016;2022-09-27T07:04:27;10.20;;;2.55;;
65717;SDS011;52445;52.466;-1.016;2022-09-27T07:06:54;23.50;;;5.35;;
65717;SDS011;52445;52.466;-1.016;2022-09-27T07:09:21;14.10;;;3.00;;
65717;SDS011;52445;52.466;-1.016;2022-09-27T07:11:48;13.43;;;2.67;;
65717;SDS011;52445;52.466;-1.016;2022-09-27T07:14:14;15.48;;;2.90;;
65717;SDS011;52445;52.466;-1.016;2022-09-27T07:16:43;10.43;;;2.90;;
65717;SDS011;52445;52.466;-1.016;2022-09-27T07:19:10;12.95;;;3.45;;
65717;SDS011;52445;52.466;-1.016;2022-09-27T07:21:39;7.85;;;1.95;;
65717;SDS011;52445;52.466;-1.016;2022-09-27T07:24:06;5.72;;;2.28;;
65717;SDS011;52445;52.466;-1.016;2022-09-27T07:26:32;5.10;;;1.33;;
65717;SDS011;52445;52.466;-1.016;2022-09-27T07:28:59;8.60;;;1.75;;
65717;SDS011;52445;52.466;-1.016;2022-09-27T07:31:26;4.72;;;1.08;;
65717;SDS011;52445;52.466;-1.016;2022-09-27T07:33:54;8.40;;;1.83;;
65717;SDS011;52445;52.466;-1.016;2022-09-27T07:36:21;6.57;;;2.55;;
65717;SDS011;52445;52.466;-1.016;2022-09-27T07:38:48;6.38;;;1.90;;
65717;SDS011;52445;52.466;-1.016;2022-09-27T07:41:14;6.22;;;1.27;;
65717;SDS011;52445;52.466;-1.016;2022-09-27T07:43:41;3.83;;;1.58;;
65717;SDS011;52445;52.466;-1.016;2022-09-27T07:46:10;5.75;;;1.30;;
65717;SDS011;52445;52.466;-1.016;2022-09-27T07:48:37;6.15;;;1.23;;
65717;SDS011;52445;52.466;-1.016;2022-09-27T07:51:03;8.07;;;1.70;;
65717;SDS011;52445;52.466;-1.016;2022-09-27T07:53:33;8.15;;;2.40;;
65717;SDS011;52445;52.466;-1.016;2022-09-27T07:55:59;10.60;;;2.42;;
65717;SDS011;52445;52.466;-1.016;2022-09-27T07:58:26;9.75;;;2.38;;
65717;SDS011;52445;52.466;-1.016;2022-09-27T08:00:54;8.52;;;2.10;;
65717;SDS011;52445;52.466;-1.016;2022-09-27T08:03:22;7.88;;;1.63;;
65717;SDS011;52445;52.466;-1.016;2022-09-27T08:05:48;4.05;;;1.02;;
65717;SDS011;52445;52.466;-1.016;2022-09-27T08:08:15;4.40;;;1.20;;
65717;SDS011;52445;52.466;-1.016;2022-09-27T08:10:42;6.35;;;1.13;;
65717;SDS011;52445;52.466;-1.016;2022-09-27T08:13:12;9.25;;;1.00;;
65717;SDS011;52445;52.466;-1.016;2022-09-27T08:15:40;5.82;;;2.03;;
65717;SDS011;52445;52.466;-1.016;2022-09-27T08:18:07;4.20;;;1.02;;
65717;SDS011;52445;52.466;-1.016;2022-09-27T08:20:36;2.47;;;1.73;;
65717;SDS011;52445;52.466;-1.016;2022-09-27T08:23:03;3.50;;;1.10;;
65717;SDS011;52445;52.466;-1.016;2022-09-27T08:25:30;7.72;;;2.00;;
65717;SDS011;52445;52.466;-1.016;2022-09-27T08:27:57;5.90;;;1.65;;
65717;SDS011;52445;52.466;-1.016;2022-09-27T08:30:25;8.23;;;1.63;;
65717;SDS011;52445;52.466;-1.016;2022-09-27T08:32:54;5.40;;;1.45;;
65717;SDS011;52445;52.466;-1.016;2022-09-27T08:35:21;6.72;;;1.25;;
65717;SDS011;52445;52.466;-1.016;2022-09-27T08:37:52;4.78;;;0.77;;
65717;SDS011;52445;52.466;-1.016;2022-09-27T08:40:22;6.13;;;1.30;;
65717;SDS011;52445;52.466;-1.016;2022-09-27T08:45:32;7.22;;;1.65;;
65717;SDS011;52445;52.466;-1.016;2022-09-27T08:48:04;5.45;;;1.20;;
65717;SDS011;52445;52.466;-1.016;2022-09-27T08:50:35;8.05;;;1.17;;
65717;SDS011;52445;52.466;-1.016;2022-09-27T08:55:50;7.03;;;1.58;;
65717;SDS011;52445;52.466;-1.016;2022-09-27T08:58:39;6.13;;;1.38;;
65717;SDS011;52445;52.466;-1.016;2022-09-27T09:01:15;4.65;;;2.53;;
65717;SDS011;52445;52.466;-1.016;2022-09-27T09:03:44;9.10;;;2.58;;
65717;SDS011;52445;52.466;-1.016;2022-09-27T09:06:19;6.55;;;1.23;;
65717;SDS011;52445;52.466;-1.016;2022-09-27T09:25:13;6.20;;;1.70;;
65717;SDS011;52445;52.466;-1.016;2022-09-27T09:33:45;5.35;;;0.90;;
65717;SDS011;52445;52.466;-1.016;2022-09-27T09:38:58;6.55;;;1.13;;
65717;SDS011;52445;52.466;-1.016;2022-09-27T09:41:32;6.55;;;1.10;;
65717;SDS011;52445;52.466;-1.016;2022-09-27T09:46:55;13.02;;;5.70;;
65717;SDS011;52445;52.466;-1.016;2022-09-27T09:52:04;6.07;;;3.22;;
65717;SDS011;52445;52.466;-1.016;2022-09-27T09:54:38;3.88;;;1.80;;
65717;SDS011;52445;52.466;-1.016;2022-09-27T09:59:48;6.40;;;1.67;;
65717;SDS011;52445;52.466;-1.016;2022-09-27T10:04:56;4.03;;;0.70;;
65717;SDS011;52445;52.466;-1.016;2022-09-27T10:07:23;2.08;;;0.63;;
65717;SDS011;52445;52.466;-1.016;2022-09-27T10:09:52;7.00;;;0.43;;
65717;SDS011;52445;52.466;-1.016;2022-09-27T10:12:22;8.57;;;1.67;;
65717;SDS011;52445;52.466;-1.016;2022-09-27T10:14:49;4.97;;;0.63;;
65717;SDS011;52445;52.466;-1.016;2022-09-27T10:17:19;3.03;;;0.70;;
65717;SDS011;52445;52.466;-1.016;2022-09-27T10:19:50;5.55;;;0.93;;
65717;SDS011;52445;52.466;-1.016;2022-09-27T10:24:57;2.60;;;0.88;;
65717;SDS011;52445;52.466;-1.016;2022-09-27T10:27:26;1.58;;;0.75;;
65717;SDS011;52445;52.466;-1.016;2022-09-27T10:29:56;2.63;;;0.55;;
65717;SDS011;52445;52.466;-1.016;2022-09-27T10:32:26;3.30;;;0.60;;
65717;SDS011;52445;52.466;-1.016;2022-09-27T10:37:49;3.75;;;0.70;;
65717;SDS011;52445;52.466;-1.016;2022-09-27T10:40:25;2.67;;;0.65;;
65717;SDS011;52445;52.466;-1.016;2022-09-27T10:42:54;4.88;;;1.02;;
65717;SDS011;52445;52.466;-1.016;2022-09-27T10:45:26;7.97;;;1.00;;
65717;SDS011;52445;52.466;-1.016;2022-09-27T10:47:57;3.40;;;0.88;;
65717;SDS011;52445;52.466;-1.016;2022-09-27T10:50:26;4.50;;;0.75;;
65717;SDS011;52445;52.466;-1.016;2022-09-27T10:53:15;1.70;;;0.22;;
65717;SDS011;52445;52.466;-1.016;2022-09-27T10:55:46;7.15;;;2.80;;
65717;SDS011;52445;52.466;-1.016;2022-09-27T10:58:17;3.10;;;0.65;;
65717;SDS011;52445;52.466;-1.016;2022-09-27T11:00:53;4.15;;;1.05;;
65717;SDS011;52445;52.466;-1.016;2022-09-27T11:03:23;2.88;;;0.43;;
65717;SDS011;52445;52.466;-1.016;2022-09-27T11:05:51;3.80;;;1.05;;
65717;SDS011;52445;52.466;-1.016;2022-09-27T11:08:22;2.95;;;0.90;;
65717;SDS011;52445;52.466;-1.016;2022-09-27T11:13:59;3.13;;;2.03;;
65717;SDS011;52445;52.466;-1.016;2022-09-27T11:19:17;5.22;;;1.33;;
65717;SDS011;52445;52.466;-1.016;2022-09-27T11:40:56;3.75;;;1.27;;
65717;SDS011;52445;52.466;-1.016;2022-09-27T11:46:28;2.55;;;0.68;;
65717;SDS011;52445;52.466;-1.016;2022-09-27T11:51:47;5.50;;;1.05;;
65717;SDS011;52445;52.466;-1.016;2022-09-27T11:54:34;5.57;;;1.95;;
65717;SDS011;52445;52.466;-1.016;2022-09-27T12:05:15;6.32;;;0.57;;
65717;SDS011;52445;52.466;-1.016;2022-09-27T12:08:07;2.83;;;0.85;;
65717;SDS011;52445;52.466;-1.016;2022-09-27T12:10:49;5.68;;;0.95;;
65717;SDS011;52445;52.466;-1.016;2022-09-27T12:13:26;4.18;;;1.30;;
65717;SDS011;52445;52.466;-1.016;2022-09-27T12:15:59;1.65;;;0.60;;
65717;SDS011;52445;52.466;-1.016;2022-09-27T12:21:03;4.90;;;2.00;;
65717;SDS011;52445;52.466;-1.016;2022-09-27T12:23:51;3.45;;;0.70;;
65717;SDS011;52445;52.466;-1.016;2022-09-27T12:26:24;2.53;;;1.20;;
65717;SDS011;52445;52.466;-1.016;2022-09-27T12:28:56;3.75;;;2.63;;
65717;SDS011;52445;52.466;-1.016;2022-09-27T12:31:29;5.25;;;1.45;;
65717;SDS011;52445;52.466;-1.016;2022-09-27T12:36:38;3.75;;;1.23;;
65717;SDS011;52445;52.466;-1.016;2022-09-27T12:39:13;4.15;;;0.75;;
65717;SDS011;52445;52.466;-1.016;2022-09-27T12:41:47;6.43;;;1.23;;
65717;SDS011;52445;52.466;-1.016;2022-09-27T12:44:21;5.15;;;0.90;;
65717;SDS011;52445;52.466;-1.016;2022-09-27T12:46:52;1.70;;;0.65;;
65717;SDS011;52445;52.466;-1.016;2022-09-27T12:52:12;3.40;;;0.52;;
65717;SDS011;52445;52.466;-1.016;2022-09-27T13:01:03;3.58;;;1.77;;
65717;SDS011;52445;52.466;-1.016;2022-09-27T13:09:05;3.58;;;1.02;;
65717;SDS011;52445;52.466;-1.016;2022-09-27T13:11:58;3.17;;;0.70;;
65717;SDS011;52445;52.466;-1.016;2022-09-27T13:14:38;5.45;;;0.82;;
65717;SDS011;52445;52.466;-1.016;2022-09-27T13:31:05;3.53;;;2.05;;
65717;SDS011;52445;52.466;-1.016;2022-09-27T13:36:29;4.78;;;0.68;;
65717;SDS011;52445;52.466;-1.016;2022-09-27T13:47:35;6.70;;;1.10;;
65717;SDS011;52445;52.466;-1.016;2022-09-27T13:52:56;5.38;;;1.40;;
65717;SDS011;52445;52.466;-1.016;2022-09-27T13:55:45;2.78;;;0.60;;
65717;SDS011;52445;52.466;-1.016;2022-09-27T14:00:51;5.05;;;0.70;;
65717;SDS011;52445;52.466;-1.016;2022-09-27T14:03:24;3.78;;;0.43;;
65717;SDS011;52445;52.466;-1.016;2022-09-27T14:06:04;1.02;;;0.30;;
65717;SDS011;52445;52.466;-1.016;2022-09-27T14:08:37;2.60;;;1.15;;
65717;SDS011;52445;52.466;-1.016;2022-09-27T14:11:12;2.78;;;0.50;;
65717;SDS011;52445;52.466;-1.016;2022-09-27T14:13:42;4.05;;;0.30;;
65717;SDS011;52445;52.466;-1.016;2022-09-27T14:16:13;1.33;;;0.90;;
65717;SDS011;52445;52.466;-1.016;2022-09-27T14:18:44;2.28;;;0.85;;
65717;SDS011;52445;52.466;-1.016;2022-09-27T14:21:17;3.17;;;0.57;;
65717;SDS011;52445;52.466;-1.016;2022-09-27T14:29:52;1.10;;;0.20;;
65717;SDS011;52445;52.466;-1.016;2022-09-27T14:32:24;3.33;;;0.88;;
65717;SDS011;52445;52.466;-1.016;2022-09-27T14:38:00;4.03;;;0.77;;
65717;SDS011;52445;52.466;-1.016;2022-09-27T14:43:24;4.53;;;1.70;;
65717;SDS011;52445;52.466;-1.016;2022-09-27T14:45:52;5.15;;;2.05;;
65717;SDS011;52445;52.466;-1.016;2022-09-27T14:48:28;3.47;;;1.98;;
65717;SDS011;52445;52.466;-1.016;2022-09-27T14:53:43;3.00;;;0.80;;
65717;SDS011;52445;52.466;-1.016;2022-09-27T14:56:13;3.85;;;1.55;;
65717;SDS011;52445;52.466;-1.016;2022-09-27T14:58:43;4.40;;;1.23;;
65717;SDS011;52445;52.466;-1.016;2022-09-27T15:01:14;1.98;;;1.67;;
65717;SDS011;52445;52.466;-1.016;2022-09-27T15:03:43;5.00;;;1.65;;
65717;SDS011;52445;52.466;-1.016;2022-09-27T15:06:12;2.95;;;1.58;;
65717;SDS011;52445;52.466;-1.016;2022-09-27T15:08:38;2.55;;;1.67;;
65717;SDS011;52445;52.466;-1.016;2022-09-27T15:11:06;8.48;;;1.25;;
65717;SDS011;52445;52.466;-1.016;2022-09-27T15:16:13;2.58;;;0.52;;
65717;SDS011;52445;52.466;-1.016;2022-09-27T15:18:46;2.03;;;1.50;;
65717;SDS011;52445;52.466;-1.016;2022-09-27T15:21:15;1.98;;;1.80;;
65717;SDS011;52445;52.466;-1.016;2022-09-27T15:23:54;2.00;;;1.38;;
65717;SDS011;52445;52.466;-1.016;2022-09-27T15:26:21;2.38;;;0.60;;
65717;SDS011;52445;52.466;-1.016;2022-09-27T15:28:52;4.22;;;2.50;;
65717;SDS011;52445;52.466;-1.016;2022-09-27T15:31:34;4.80;;;1.80;;
65717;SDS011;52445;52.466;-1.016;2022-09-27T15:34:02;4.40;;;2.20;;
65717;SDS011;52445;52.466;-1.016;2022-09-27T15:42:08;2.45;;;1.30;;
65717;SDS011;52445;52.466;-1.016;2022-09-27T15:44:44;0.77;;;0.30;;
65717;SDS011;52445;52.466;-1.016;2022-09-27T15:52:53;3.55;;;0.40;;
65717;SDS011;52445;52.466;-1.016;2022-09-27T15:57:52;3.83;;;0.50;;
65717;SDS011;52445;52.466;-1.016;2022-09-27T16:00:23;2.88;;;0.38;;
65717;SDS011;52445;52.466;-1.016;2022-09-27T16:02:51;2.53;;;0.50;;
65717;SDS011;52445;52.466;-1.016;2022-09-27T16:05:20;1.85;;;0.30;;
65717;SDS011;52445;52.466;-1.016;2022-09-27T16:07:49;3.00;;;0.60;;
65717;SDS011;52445;52.466;-1.016;2022-09-27T16:10:17;0.75;;;0.50;;
65717;SDS011;52445;52.466;-1.016;2022-09-27T16:12:46;3.72;;;0.50;;
65717;SDS011;52445;52.466;-1.016;2022-09-27T16:15:13;1.25;;;0.65;;
65717;SDS011;52445;52.466;-1.016;2022-09-27T16:17:40;2.15;;;0.30;;
65717;SDS011;52445;52.466;-1.016;2022-09-27T16:20:14;1.52;;;0.70;;
65717;SDS011;52445;52.466;-1.016;2022-09-27T16:22:44;1.00;;;0.40;;
65717;SDS011;52445;52.466;-1.016;2022-09-27T16:25:11;3.40;;;0.63;;
65717;SDS011;52445;52.466;-1.016;2022-09-27T16:27:37;2.00;;;0.52;;
65717;SDS011;52445;52.466;-1.016;2022-09-27T16:30:04;3.13;;;0.80;;
65717;SDS011;52445;52.466;-1.016;2022-09-27T16:32:31;3.25;;;0.82;;
65717;SDS011;52445;52.466;-1.016;2022-09-27T16:34:58;4.63;;;0.50;;
65717;SDS011;52445;52.466;-1.016;2022-09-27T16:37:24;2.60;;;0.43;;
65717;SDS011;52445;52.466;-1.016;2022-09-27T16:39:51;1.52;;;0.63;;
65717;SDS011;52445;52.466;-1.016;2022-09-27T16:42:18;3.90;;;0.52;;
65717;SDS011;52445;52.466;-1.016;2022-09-27T16:44:44;2.13;;;0.35;;
65717;SDS011;52445;52.466;-1.016;2022-09-27T16:47:15;3.47;;;0.60;;
65717;SDS011;52445;52.466;-1.016;2022-09-27T16:49:42;2.33;;;0.50;;
65717;SDS011;52445;52.466;-1.016;2022-09-27T16:52:29;4.72;;;0.93;;
65717;SDS011;52445;52.466;-1.016;2022-09-27T16:54:57;7.93;;;0.60;;
65717;SDS011;52445;52.466;-1.016;2022-09-27T16:57:25;1.92;;;0.47;;
65717;SDS011;52445;52.466;-1.016;2022-09-27T16:59:53;2.25;;;0.90;;
65717;SDS011;52445;52.466;-1.016;2022-09-27T17:02:22;1.25;;;0.60;;
65717;SDS011;52445;52.466;-1.016;2022-09-27T17:04:50;6.75;;;2.13;;
65717;SDS011;52445;52.466;-1.016;2022-09-27T17:07:17;1.83;;;0.85;;
65717;SDS011;52445;52.466;-1.016;2022-09-27T17:09:43;4.38;;;0.90;;
65717;SDS011;52445;52.466;-1.016;2022-09-27T17:12:10;2.22;;;0.88;;
65717;SDS011;52445;52.466;-1.016;2022-09-27T17:14:38;9.98;;;3.90;;
65717;SDS011;52445;52.466;-1.016;2022-09-27T17:17:04;1.80;;;0.63;;
65717;SDS011;52445;52.466;-1.016;2022-09-27T17:19:32;1.15;;;0.50;;
65717;SDS011;52445;52.466;-1.016;2022-09-27T17:21:59;4.28;;;0.70;;
65717;SDS011;52445;52.466;-1.016;2022-09-27T17:24:26;3.08;;;0.82;;
65717;SDS011;52445;52.466;-1.016;2022-09-27T17:26:53;3.28;;;0.65;;
65717;SDS011;52445;52.466;-1.016;2022-09-27T17:29:20;5.32;;;0.60;;
65717;SDS011;52445;52.466;-1.016;2022-09-27T17:31:47;2.47;;;0.88;;
65717;SDS011;52445;52.466;-1.016;2022-09-27T17:34:13;3.92;;;1.42;;
65717;SDS011;52445;52.466;-1.016;2022-09-27T17:36:41;2.45;;;1.35;;
65717;SDS011;52445;52.466;-1.016;2022-09-27T17:39:14;7.90;;;2.58;;
65717;SDS011;52445;52.466;-1.016;2022-09-27T17:41:41;7.30;;;1.55;;
65717;SDS011;52445;52.466;-1.016;2022-09-27T17:44:10;6.85;;;1.92;;
65717;SDS011;52445;52.466;-1.016;2022-09-27T17:46:39;9.20;;;2.58;;
65717;SDS011;52445;52.466;-1.016;2022-09-27T17:49:08;10.20;;;2.95;;
65717;SDS011;52445;52.466;-1.016;2022-09-27T17:51:55;7.75;;;1.90;;
65717;SDS011;52445;52.466;-1.016;2022-09-27T17:54:22;4.95;;;1.25;;
65717;SDS011;52445;52.466;-1.016;2022-09-27T17:56:51;26.75;;;5.78;;
65717;SDS011;52445;52.466;-1.016;2022-09-27T17:59:17;14.15;;;3.80;;
65717;SDS011;52445;52.466;-1.016;2022-09-27T18:01:45;11.65;;;3.53;;
65717;SDS011;52445;52.466;-1.016;2022-09-27T18:04:13;12.20;;;2.65;;
65717;SDS011;52445;52.466;-1.016;2022-09-27T18:06:42;23.80;;;8.88;;
65717;SDS011;52445;52.466;-1.016;2022-09-27T18:09:12;4.05;;;1.88;;
65717;SDS011;52445;52.466;-1.016;2022-09-27T18:11:40;4.85;;;1.77;;
65717;SDS011;52445;52.466;-1.016;2022-09-27T18:14:07;4.22;;;0.98;;
65717;SDS011;52445;52.466;-1.016;2022-09-27T18:16:37;3.35;;;1.05;;